Time;durP1;ratioP1;P1;durP2;ratioP2;P2;SDS_P1;SDS_P2;PMS_P1;PMS_P2;Temp;Humidity;BMP_temperature;BMP_pressure;BME280_temperature;BME280_humidity;BME280_pressure;Samples;Min_cycle;Max_cycle;Signal;HPM_P1;HPM_P2
2022/09/01 00:00:48;;;;;;;1.70;1.27;;;16.20;54.50;;;;;;5032824;28;20206;-59
2022/09/01 00:03:15;;;;;;;3.70;1.47;;;16.20;55.50;;;;;;5032466;28;20262;-58
2022/09/01 00:05:42;;;;;;;2.80;1.43;;;16.20;57.10;;;;;;5032645;28;20206;-59
2022/09/01 00:08:09;;;;;;;2.47;1.20;;;16.10;59.60;;;;;;5032611;28;20557;-59
2022/09/01 00:10:35;;;;;;;1.70;1.37;;;16.10;61.50;;;;;;5032722;28;20244;-59
2022/09/01 00:13:05;;;;;;;2.00;1.60;;;16.10;61.60;;;;;;5032522;28;20620;-59
2022/09/01 00:15:32;;;;;;;3.47;2.03;;;16.10;62.30;;;;;;5032591;28;20213;-59
2022/09/01 00:17:59;;;;;;;2.67;1.57;;;16.10;63.20;;;;;;5032039;28;20217;-59
2022/09/01 00:20:26;;;;;;;4.00;1.40;;;16.10;63.80;;;;;;5032387;28;20210;-59
2022/09/01 00:22:52;;;;;;;2.03;1.40;;;16.20;64.90;;;;;;5032317;28;20210;-59
2022/09/01 00:25:19;;;;;;;1.60;1.10;;;16.20;63.80;;;;;;5032423;28;20234;-59
2022/09/01 00:27:46;;;;;;;4.70;1.40;;;16.10;65.30;;;;;;5032035;28;20210;-59
2022/09/01 00:30:14;;;;;;;2.53;1.23;;;16.10;65.40;;;;;;5032303;28;20249;-59
2022/09/01 00:32:45;;;;;;;1.33;1.23;;;16.10;64.60;;;;;;5032314;28;20735;-58
2022/09/01 00:35:12;;;;;;;2.07;1.40;;;16.10;63.90;;;;;;5032114;28;20222;-59
2022/09/01 00:37:38;;;;;;;1.40;1.20;;;16.10;64.40;;;;;;5031748;28;20213;-59
2022/09/01 00:40:07;;;;;;;2.87;1.50;;;16.10;64.70;;;;;;5031794;28;20762;-59
2022/09/01 00:42:33;;;;;;;3.23;1.50;;;16.10;62.90;;;;;;5032180;28;20596;-59
2022/09/01 00:45:00;;;;;;;3.13;1.30;;;16.10;64.60;;;;;;5031925;28;20238;-59
2022/09/01 00:47:28;;;;;;;1.50;1.40;;;16.10;64.60;;;;;;5031608;28;20214;-59
2022/09/01 00:49:55;;;;;;;3.33;1.40;;;16.00;66.50;;;;;;5031791;28;20226;-59
2022/09/01 00:52:28;;;;;;;2.00;1.40;;;16.10;67.60;;;;;;5032273;28;20256;-59
2022/09/01 00:54:59;;;;;;;4.87;1.33;;;16.10;67.20;;;;;;5031799;28;20222;-59
2022/09/01 00:57:26;;;;;;;3.33;1.70;;;16.00;68.40;;;;;;5031723;28;20202;-59
2022/09/01 00:59:56;;;;;;;3.03;1.57;;;16.00;67.00;;;;;;5031743;28;20210;-59
2022/09/01 01:02:24;;;;;;;2.07;1.40;;;16.00;66.30;;;;;;5032130;28;20206;-59
2022/09/01 01:04:57;;;;;;;1.70;1.40;;;16.00;67.40;;;;;;5032694;28;20222;-59
2022/09/01 01:07:26;;;;;;;1.57;1.07;;;16.00;68.20;;;;;;5035889;28;20289;-59
2022/09/01 01:09:53;;;;;;;1.80;1.20;;;16.00;66.80;;;;;;5035931;28;20592;-59
2022/09/01 01:12:20;;;;;;;3.37;1.40;;;16.00;68.60;;;;;;5035609;28;20205;-58
2022/09/01 01:14:49;;;;;;;1.67;1.30;;;16.00;69.10;;;;;;5035581;28;20229;-59
2022/09/01 01:17:16;;;;;;;1.73;1.30;;;16.00;69.30;;;;;;5035715;28;20208;-59
2022/09/01 01:25:24;;;;;;;1.40;1.30;;;16.00;70.60;;;;;;5035629;28;20693;-59
2022/09/01 01:27:51;;;;;;;3.07;1.53;;;16.00;72.00;;;;;;5035181;28;20210;-59
2022/09/01 01:30:19;;;;;;;1.73;1.47;;;15.90;72.30;;;;;;5035552;28;20222;-59
2022/09/01 01:32:48;;;;;;;5.43;1.90;;;15.90;72.80;;;;;;5035522;28;20210;-59
2022/09/01 01:35:17;;;;;;;1.90;1.50;;;15.80;73.50;;;;;;5035247;28;20226;-59
2022/09/01 01:37:47;;;;;;;2.10;1.63;;;15.80;74.20;;;;;;5035111;28;20214;-59
2022/09/01 01:40:15;;;;;;;2.60;1.40;;;15.80;77.90;;;;;;5035247;28;20198;-59
2022/09/01 01:42:45;;;;;;;2.00;1.50;;;15.80;81.10;;;;;;5035400;28;20206;-59
2022/09/01 01:45:15;;;;;;;5.37;1.77;;;15.70;83.90;;;;;;5034997;28;20244;-58
2022/09/01 01:47:44;;;;;;;2.20;1.47;;;15.60;84.70;;;;;;5035093;28;20211;-57
2022/09/01 01:50:11;;;;;;;1.60;1.43;;;15.60;88.00;;;;;;5034899;28;20878;-59
2022/09/01 01:52:38;;;;;;;8.77;1.77;;;15.50;90.20;;;;;;5035180;28;20625;-59
2022/09/01 01:55:09;;;;;;;2.70;1.27;;;15.40;91.20;;;;;;5035072;28;20230;-59
2022/09/01 01:57:36;;;;;;;1.90;1.47;;;15.30;93.60;;;;;;5034948;28;20289;-59
2022/09/01 02:00:05;;;;;;;5.03;1.77;;;15.30;96.10;;;;;;5035142;28;20206;-59
2022/09/01 02:02:32;;;;;;;2.13;1.70;;;15.20;99.50;;;;;;5035123;28;20260;-59
2022/09/01 02:04:59;;;;;;;3.10;1.60;;;15.10;99.90;;;;;;5034961;28;20644;-59
2022/09/01 02:07:26;;;;;;;2.77;1.63;;;15.00;99.90;;;;;;5034404;28;20748;-59
2022/09/01 02:09:52;;;;;;;3.33;1.80;;;14.90;99.90;;;;;;5034762;28;20324;-59
2022/09/01 02:12:22;;;;;;;2.23;1.70;;;14.80;99.90;;;;;;5034531;28;20677;-58
2022/09/01 02:14:49;;;;;;;1.77;1.50;;;14.70;99.90;;;;;;5034298;28;20222;-59
2022/09/01 02:17:17;;;;;;;4.90;1.80;;;14.70;99.90;;;;;;5034412;28;20214;-58
2022/09/01 02:19:45;;;;;;;3.60;1.60;;;14.70;99.90;;;;;;5034855;28;20272;-59
2022/09/01 02:22:12;;;;;;;3.83;1.60;;;14.60;99.90;;;;;;5034627;28;20214;-59
2022/09/01 02:24:45;;;;;;;2.33;1.60;;;14.50;99.90;;;;;;5034570;28;20234;-59
2022/09/01 02:27:13;;;;;;;1.97;1.70;;;14.50;99.90;;;;;;5034370;28;20576;-59
2022/09/01 02:29:40;;;;;;;3.67;1.60;;;14.50;99.90;;;;;;5034176;28;20257;-59
2022/09/01 02:32:07;;;;;;;5.93;1.70;;;14.50;99.90;;;;;;5034166;28;20684;-59
2022/09/01 02:34:38;;;;;;;1.73;1.63;;;14.40;99.90;;;;;;5034479;28;20234;-59
2022/09/01 02:37:05;;;;;;;4.83;2.00;;;14.40;99.90;;;;;;5034083;28;20217;-59
2022/09/01 02:39:32;;;;;;;3.63;1.80;;;14.40;99.90;;;;;;5034311;28;20267;-59
2022/09/01 02:42:00;;;;;;;2.03;1.60;;;14.30;99.90;;;;;;5034186;28;20210;-59
2022/09/01 02:44:27;;;;;;;4.63;2.07;;;14.10;99.90;;;;;;5034000;28;20246;-59
2022/09/01 02:46:54;;;;;;;5.83;2.17;;;14.10;99.90;;;;;;5034009;28;20211;-58
2022/09/01 02:49:24;;;;;;;3.07;1.90;;;14.00;99.90;;;;;;5033912;28;20773;-59
2022/09/01 02:51:56;;;;;;;2.10;1.70;;;14.00;99.90;;;;;;5033867;28;20301;-59
2022/09/01 02:54:24;;;;;;;4.33;2.00;;;14.00;99.90;;;;;;5034023;28;20596;-59
2022/09/01 02:56:53;;;;;;;7.60;2.30;;;14.00;99.90;;;;;;5033732;28;20260;-55
2022/09/01 02:59:21;;;;;;;2.90;1.70;;;14.00;99.90;;;;;;5034105;28;20206;-59
2022/09/01 03:01:49;;;;;;;3.03;1.93;;;14.00;99.90;;;;;;5033947;28;20656;-59
2022/09/01 03:04:17;;;;;;;3.30;2.10;;;14.00;99.90;;;;;;5034584;28;20311;-54
2022/09/01 03:06:43;;;;;;;4.00;1.90;;;14.10;99.90;;;;;;5033786;28;20205;-58
2022/09/01 03:09:15;;;;;;;2.83;2.00;;;14.10;99.90;;;;;;5033458;28;20701;-54
2022/09/01 03:11:45;;;;;;;2.20;1.70;;;14.10;99.90;;;;;;5033800;28;20213;-58
2022/09/01 03:14:13;;;;;;;4.27;1.83;;;14.10;99.90;;;;;;5033476;28;20707;-53
2022/09/01 03:16:40;;;;;;;4.70;2.10;;;14.10;99.90;;;;;;5033431;28;20206;-58
2022/09/01 03:19:08;;;;;;;3.57;1.97;;;14.10;99.90;;;;;;5033507;28;20200;-54
2022/09/01 03:21:36;;;;;;;5.43;2.07;;;14.10;99.90;;;;;;5033637;28;20210;-57
2022/09/01 03:24:03;;;;;;;2.83;2.00;;;14.10;99.90;;;;;;5033224;28;20307;-55
2022/09/01 03:26:31;;;;;;;3.77;2.23;;;14.10;99.90;;;;;;5033367;28;20206;-58
2022/09/01 03:28:58;;;;;;;2.87;1.90;;;14.10;99.90;;;;;;5032635;28;20213;-57
2022/09/01 03:31:27;;;;;;;2.60;2.10;;;14.10;99.90;;;;;;5033337;28;20590;-58
2022/09/01 03:33:55;;;;;;;3.37;2.00;;;14.00;99.90;;;;;;5032974;28;20724;-55
2022/09/01 03:36:23;;;;;;;2.43;1.80;;;13.90;1.00;;;;;;5032688;28;20210;-57
2022/09/01 03:38:51;;;;;;;5.03;2.00;;;13.90;1.00;;;;;;5032958;28;20213;-56
2022/09/01 03:41:21;;;;;;;3.53;1.80;;;13.90;1.00;;;;;;5033090;28;20262;-56
2022/09/01 03:43:50;;;;;;;2.57;2.03;;;13.90;1.00;;;;;;5032677;28;20237;-54
2022/09/01 03:46:20;;;;;;;5.43;2.40;;;13.80;1.00;;;;;;5032896;28;20259;-57
2022/09/01 03:48:47;;;;;;;10.37;2.20;;;13.80;1.00;;;;;;5032835;28;20260;-55
2022/09/01 03:51:14;;;;;;;3.37;2.30;;;13.80;1.00;;;;;;5032740;28;20346;-59
2022/09/01 03:53:41;;;;;;;3.33;2.00;;;13.80;1.00;;;;;;5032928;28;20274;-59
2022/09/01 03:56:08;;;;;;;2.63;2.17;;;13.70;1.00;;;;;;5032571;28;20796;-59
2022/09/01 03:58:35;;;;;;;3.13;2.00;;;13.70;1.00;;;;;;5032655;28;20209;-58
2022/09/01 04:01:03;;;;;;;4.13;2.20;;;13.70;1.00;;;;;;5032398;28;20201;-57
2022/09/01 04:03:33;;;;;;;3.53;2.40;;;13.60;1.00;;;;;;5032554;28;20234;-57
2022/09/01 04:06:01;;;;;;;3.87;2.30;;;13.60;1.00;;;;;;5032146;28;20214;-58
2022/09/01 04:08:30;;;;;;;3.00;2.00;;;13.50;1.00;;;;;;5032551;28;20233;-57
2022/09/01 04:10:59;;;;;;;3.37;2.20;;;13.40;15.00;;;;;;5032561;28;20231;-59
2022/09/01 04:13:29;;;;;;;2.47;2.07;;;13.40;97.00;;;;;;5032235;28;20242;-58
2022/09/01 04:15:56;;;;;;;2.20;2.00;;;13.40;99.90;;;;;;5031942;28;20213;-55
2022/09/01 04:18:23;;;;;;;3.50;2.10;;;13.30;99.90;;;;;;5032395;28;20625;-58
2022/09/01 04:20:52;;;;;;;4.73;2.37;;;13.20;99.90;;;;;;5032265;28;20205;-56
2022/09/01 04:23:25;;;;;;;3.40;2.20;;;13.20;99.90;;;;;;5032348;28;20204;-57
2022/09/01 04:25:54;;;;;;;5.33;2.70;;;13.10;1.00;;;;;;5032176;28;20208;-58
2022/09/01 04:28:24;;;;;;;3.80;2.33;;;13.10;1.00;;;;;;5032125;28;20302;-57
2022/09/01 04:30:54;;;;;;;3.53;2.67;;;13.10;1.00;;;;;;5031874;28;20654;-56
2022/09/01 04:33:21;;;;;;;3.63;2.17;;;13.10;1.00;;;;;;5032424;28;20256;-55
2022/09/01 04:35:51;;;;;;;3.90;2.50;;;13.10;1.00;;;;;;5031806;28;20633;-58
2022/09/01 04:38:18;;;;;;;3.83;2.63;;;13.00;1.00;;;;;;5032271;28;20298;-58
2022/09/01 04:40:44;;;;;;;3.80;2.33;;;13.00;1.00;;;;;;5031608;28;20203;-58
2022/09/01 04:43:11;;;;;;;3.83;2.53;;;13.00;40.70;;;;;;5031910;28;20216;-58
2022/09/01 04:45:38;;;;;;;5.17;2.40;;;12.90;86.10;;;;;;5031884;28;20219;-58
2022/09/01 04:48:05;;;;;;;4.83;2.40;;;12.90;98.20;;;;;;5031647;28;20216;-58
2022/09/01 04:50:33;;;;;;;4.03;2.70;;;12.90;99.90;;;;;;5032038;28;20220;-57
2022/09/01 04:53:04;;;;;;;5.07;2.30;;;12.90;99.90;;;;;;5029198;28;20289;-54
2022/09/01 04:55:31;;;;;;;6.57;2.60;;;12.90;99.90;;;;;;5031106;28;20219;-55
2022/09/01 04:58:03;;;;;;;3.67;2.70;;;12.90;99.90;;;;;;5031274;28;20624;-53
2022/09/01 05:00:31;;;;;;;4.60;2.70;;;12.90;99.90;;;;;;5031781;28;20210;-55
2022/09/01 05:03:02;;;;;;;2.60;2.40;;;12.90;99.90;;;;;;5031050;28;20698;-54
2022/09/01 05:05:31;;;;;;;4.87;2.60;;;12.90;99.90;;;;;;5031632;28;20211;-52
2022/09/01 05:07:58;;;;;;;7.67;4.43;;;12.90;99.90;;;;;;5031155;28;20214;-53
2022/09/01 05:10:28;;;;;;;4.20;2.67;;;13.00;99.90;;;;;;5031514;28;20767;-56
2022/09/01 05:12:56;;;;;;;3.90;2.40;;;13.00;99.90;;;;;;5030935;28;20669;-55
2022/09/01 05:15:22;;;;;;;4.90;2.80;;;13.00;99.90;;;;;;5031491;28;20230;-54
2022/09/01 05:17:51;;;;;;;3.80;2.20;;;13.10;99.90;;;;;;5031445;28;20256;-51
2022/09/01 05:20:19;;;;;;;3.73;2.20;;;13.10;99.90;;;;;;5029892;28;20206;-56
2022/09/01 05:22:46;;;;;;;3.33;2.40;;;13.10;99.90;;;;;;5031107;28;20198;-57
2022/09/01 05:25:12;;;;;;;5.77;2.77;;;13.20;99.90;;;;;;5031013;28;20230;-59
2022/09/01 05:27:48;;;;;;;3.50;2.50;;;13.20;99.90;;;;;;5031264;28;20252;-59
2022/09/01 05:30:16;;;;;;;5.23;2.30;;;13.20;99.90;;;;;;5030918;28;20262;-59
2022/09/01 05:32:43;;;;;;;5.47;2.30;;;13.20;99.90;;;;;;5031161;28;20241;-60
2022/09/01 05:35:10;;;;;;;4.23;2.77;;;13.20;99.90;;;;;;5030785;28;20713;-58
2022/09/01 05:37:38;;;;;;;3.60;2.30;;;13.30;99.90;;;;;;5031292;28;20253;-60
2022/09/01 05:40:08;;;;;;;4.20;2.50;;;13.30;99.90;;;;;;5031173;28;20206;-56
2022/09/01 05:42:38;;;;;;;5.33;2.53;;;13.40;45.10;;;;;;5031454;28;20203;-60
2022/09/01 05:45:09;;;;;;;3.03;2.30;;;13.40;1.00;;;;;;5030743;28;20323;-60
2022/09/01 05:47:36;;;;;;;4.07;2.60;;;13.40;1.00;;;;;;5030785;28;20203;-57
2022/09/01 05:50:04;;;;;;;6.83;2.80;;;13.40;1.00;;;;;;5031157;28;20283;-55
2022/09/01 05:52:34;;;;;;;5.27;2.33;;;13.50;1.00;;;;;;5034054;28;20293;-57
2022/09/01 05:55:00;;;;;;;3.50;2.73;;;13.60;1.00;;;;;;5034899;28;20307;-60
2022/09/01 05:57:27;;;;;;;2.93;2.37;;;13.60;1.00;;;;;;5034260;28;20213;-59
2022/09/01 05:59:54;;;;;;;4.33;2.50;;;13.60;1.00;;;;;;5034742;28;20235;-61
2022/09/01 06:02:22;;;;;;;5.00;2.33;;;13.70;1.00;;;;;;5034237;28;20237;-59
2022/09/01 06:04:51;;;;;;;3.03;2.20;;;13.70;1.00;;;;;;5034599;28;20229;-61
2022/09/01 06:07:18;;;;;;;3.63;1.97;;;13.80;1.00;;;;;;5034528;28;20316;-61
2022/09/01 06:09:47;;;;;;;2.97;2.43;;;13.80;1.00;;;;;;5034601;28;20213;-61
2022/09/01 06:12:22;;;;;;;2.83;2.20;;;13.90;1.00;;;;;;5034207;28;20209;-61
2022/09/01 06:14:51;;;;;;;2.23;1.90;;;14.00;1.00;;;;;;5024604;28;20230;-60
2022/09/01 06:17:23;;;;;;;4.23;2.13;;;14.10;1.00;;;;;;5031969;28;20221;-61
2022/09/01 06:19:52;;;;;;;4.50;2.10;;;14.10;1.00;;;;;;5034141;28;20726;-61
2022/09/01 06:22:19;;;;;;;4.93;2.17;;;14.20;99.90;;;;;;5033631;28;20268;-58
2022/09/01 06:24:46;;;;;;;2.90;2.10;;;14.20;99.90;;;;;;5032825;28;20240;-57
2022/09/01 06:27:16;;;;;;;4.13;2.10;;;14.30;99.90;;;;;;5033309;28;20209;-58
2022/09/01 06:29:44;;;;;;;4.53;2.20;;;14.40;99.90;;;;;;5033745;28;20209;-58
2022/09/01 06:32:11;;;;;;;4.50;2.27;;;14.40;99.90;;;;;;5033080;28;20209;-58
2022/09/01 06:34:41;;;;;;;3.63;1.90;;;14.60;99.90;;;;;;5033697;28;20295;-60
2022/09/01 06:37:09;;;;;;;3.57;2.13;;;14.60;99.90;;;;;;5033227;28;20253;-58
2022/09/01 06:39:36;;;;;;;4.87;2.00;;;14.70;38.30;;;;;;5032831;28;20644;-56
2022/09/01 06:42:03;;;;;;;6.43;2.00;;;14.90;6.90;;;;;;5033754;28;20268;-59
2022/09/01 06:44:30;;;;;;;3.97;2.30;;;14.90;1.00;;;;;;5033113;28;20244;-61
2022/09/01 06:46:58;;;;;;;2.47;1.87;;;15.00;1.00;;;;;;5032758;28;20210;-63
2022/09/01 06:49:29;;;;;;;2.50;2.13;;;15.10;1.00;;;;;;5033463;28;20209;-61
2022/09/01 06:51:58;;;;;;;4.40;2.10;;;15.20;1.00;;;;;;5032990;28;20285;-60
2022/09/01 06:54:26;;;;;;;4.97;2.17;;;15.30;1.00;;;;;;5032595;28;20260;-61
2022/09/01 06:56:52;;;;;;;3.40;2.30;;;15.30;99.90;;;;;;5032380;28;20237;-58
2022/09/01 06:59:20;;;;;;;3.00;2.00;;;15.40;99.90;;;;;;5033363;28;20216;-55
2022/09/01 07:01:47;;;;;;;3.73;2.20;;;15.40;99.90;;;;;;5033199;28;20206;-64
2022/09/01 07:04:14;;;;;;;5.80;2.13;;;15.50;1.00;;;;;;5032399;28;20241;-64
2022/09/01 07:06:42;;;;;;;5.93;2.00;;;15.60;99.90;;;;;;5032443;28;20585;-65
2022/09/01 07:09:10;;;;;;;1.97;1.60;;;15.80;99.90;;;;;;5032988;28;20206;-64
2022/09/01 07:11:38;;;;;;;3.80;1.93;;;15.90;99.90;;;;;;5033292;28;20317;-63
2022/09/01 07:14:06;;;;;;;2.10;1.87;;;16.00;99.90;;;;;;5032767;28;20226;-64
2022/09/01 07:16:39;;;;;;;4.40;2.20;;;16.20;99.90;;;;;;5032618;28;20210;-63
2022/09/01 07:19:12;;;;;;;3.00;1.87;;;16.30;99.90;;;;;;5032647;28;20628;-64
2022/09/01 07:21:38;;;;;;;3.00;1.70;;;16.40;99.90;;;;;;5032891;28;20840;-64
2022/09/01 07:24:05;;;;;;;2.87;1.90;;;16.40;99.90;;;;;;5032428;28;20712;-64
2022/09/01 07:26:34;;;;;;;5.87;2.00;;;16.60;99.90;;;;;;5032115;28;20210;-64
2022/09/01 07:29:04;;;;;;;1.97;1.53;;;16.70;99.90;;;;;;5032474;28;20210;-65
2022/09/01 07:31:35;;;;;;;3.50;1.87;;;16.80;99.90;;;;;;5032089;28;20716;-64
2022/09/01 07:34:04;;;;;;;5.60;2.20;;;16.90;99.90;;;;;;5032706;28;20258;-65
2022/09/01 07:36:31;;;;;;;2.57;1.67;;;17.10;99.90;;;;;;5031608;28;20214;-64
2022/09/01 07:39:00;;;;;;;2.00;1.80;;;17.30;99.90;;;;;;5032789;28;20220;-63
2022/09/01 07:41:28;;;;;;;2.63;1.70;;;17.40;99.90;;;;;;5032201;28;20214;-65
2022/09/01 07:43:55;;;;;;;6.27;1.70;;;17.50;99.90;;;;;;5032370;28;20234;-66
2022/09/01 07:46:25;;;;;;;4.37;1.83;;;17.60;97.50;;;;;;5031300;28;20210;-66
2022/09/01 07:48:54;;;;;;;3.13;1.50;;;17.70;95.40;;;;;;5032185;28;20577;-65
2022/09/01 07:51:22;;;;;;;4.03;1.63;;;17.90;92.60;;;;;;5032033;28;20226;-64
2022/09/01 07:53:49;;;;;;;3.67;1.80;;;17.80;90.50;;;;;;5031978;28;20277;-65
2022/09/01 07:56:19;;;;;;;6.27;1.83;;;17.90;87.40;;;;;;5032088;28;20289;-64
2022/09/01 07:58:47;;;;;;;5.30;1.97;;;17.90;90.30;;;;;;5032009;28;20297;-61
2022/09/01 08:01:19;;;;;;;4.40;1.37;;;18.00;86.60;;;;;;5032618;28;20206;-61
2022/09/01 08:03:49;;;;;;;6.57;1.70;;;18.10;85.70;;;;;;5032126;28;20226;-62
2022/09/01 08:06:19;;;;;;;4.13;2.07;;;18.30;78.70;;;;;;5031937;28;20206;-62
2022/09/01 08:08:47;;;;;;;4.50;1.70;;;18.40;83.90;;;;;;5022197;28;20264;-63
2022/09/01 08:11:16;;;;;;;3.10;1.63;;;18.50;77.50;;;;;;5031032;28;20230;-63
2022/09/01 08:13:43;;;;;;;6.50;1.63;;;18.70;81.00;;;;;;5032166;28;20643;-62
2022/09/01 08:16:11;;;;;;;1.63;1.07;;;18.80;71.00;;;;;;5032022;28;20206;-62
2022/09/01 08:18:37;;;;;;;1.80;1.37;;;18.90;70.20;;;;;;5031733;28;20264;-62
2022/09/01 08:21:08;;;;;;;1.60;1.00;;;19.00;63.80;;;;;;5031880;28;20254;-65
2022/09/01 08:23:36;;;;;;;2.73;1.10;;;19.10;61.40;;;;;;5031857;28;20237;-64
2022/09/01 08:26:06;;;;;;;1.93;1.10;;;19.10;56.90;;;;;;5030801;28;20206;-63
2022/09/01 08:28:33;;;;;;;2.40;1.10;;;19.20;57.30;;;;;;5031639;28;20220;-65
2022/09/01 08:31:00;;;;;;;3.40;1.10;;;19.30;55.70;;;;;;5031187;28;20734;-66
2022/09/01 08:33:27;;;;;;;6.13;1.37;;;19.50;56.30;;;;;;5031898;28;20532;-66
2022/09/01 08:35:56;;;;;;;4.20;1.60;;;19.60;54.40;;;;;;5030753;28;20213;-65
2022/09/01 08:38:24;;;;;;;4.30;1.23;;;19.70;59.90;;;;;;5031128;28;20676;-64
2022/09/01 08:40:53;;;;;;;3.87;1.50;;;19.90;58.10;;;;;;5031221;28;20206;-64
2022/09/01 08:44:02;;;;;;;1.93;1.20;;;20.10;57.80;;;;;;5031325;28;20210;-64
2022/09/01 08:46:34;;;;;;;2.60;1.20;;;20.20;55.70;;;;;;5027815;28;20684;-64
2022/09/01 08:49:08;;;;;;;3.97;1.07;;;20.40;58.70;;;;;;5031724;28;20539;-66
2022/09/01 08:51:38;;;;;;;6.77;1.60;;;20.50;52.90;;;;;;5031276;28;20318;-64
2022/09/01 08:54:14;;;;;;;3.03;1.20;;;20.60;55.00;;;;;;5031386;28;20611;-66
2022/09/01 08:56:42;;;;;;;1.47;0.97;;;20.70;55.70;;;;;;5030965;28;20223;-65
2022/09/01 08:59:10;;;;;;;2.87;0.90;;;20.80;51.60;;;;;;5030919;28;20279;-64
2022/09/01 09:01:44;;;;;;;3.20;1.00;;;20.60;47.70;;;;;;5031350;28;20259;-64
2022/09/01 09:04:26;;;;;;;1.40;0.97;;;20.60;48.10;;;;;;5030857;28;20230;-65
2022/09/01 09:07:04;;;;;;;2.83;1.10;;;20.70;47.80;;;;;;5030755;28;20287;-64
2022/09/01 09:09:37;;;;;;;5.13;1.00;;;20.90;52.00;;;;;;5023131;28;20210;-64
2022/09/01 09:12:27;;;;;;;2.80;1.00;;;21.00;52.60;;;;;;5029367;28;20876;-62
2022/09/01 09:15:14;;;;;;;2.33;1.17;;;21.20;52.00;;;;;;5029374;28;20271;-63
2022/09/01 09:17:45;;;;;;;3.23;1.00;;;21.10;47.60;;;;;;5029211;28;20206;-66
2022/09/01 09:20:12;;;;;;;2.77;1.00;;;21.10;46.80;;;;;;5029338;28;20216;-66
2022/09/01 09:22:40;;;;;;;2.67;0.90;;;20.90;44.20;;;;;;5031395;28;20206;-66
2022/09/01 09:25:13;;;;;;;4.80;0.97;;;20.90;46.10;;;;;;5031112;28;20222;-66
2022/09/01 09:27:42;;;;;;;2.73;1.07;;;20.90;43.10;;;;;;5034591;28;20206;-67
2022/09/01 09:30:11;;;;;;;5.33;1.10;;;21.00;46.30;;;;;;5033460;28;20206;-66
2022/09/01 09:32:50;;;;;;;2.47;0.90;;;21.20;48.20;;;;;;5033602;28;20296;-63
2022/09/01 09:35:25;;;;;;;1.67;1.00;;;21.20;45.30;;;;;;5033117;28;20225;-64
2022/09/01 09:37:53;;;;;;;2.07;1.17;;;21.20;44.60;;;;;;5032718;28;20313;-64
2022/09/01 09:40:22;;;;;;;1.13;0.90;;;21.30;43.60;;;;;;5033159;28;20214;-64
2022/09/01 09:43:04;;;;;;;3.23;1.10;;;21.40;45.60;;;;;;5032562;28;20198;-64
2022/09/01 09:45:33;;;;;;;2.80;1.50;;;21.50;45.80;;;;;;5033034;28;20746;-65
2022/09/01 09:48:04;;;;;;;2.00;0.97;;;21.70;48.80;;;;;;5032409;28;20210;-62
2022/09/01 09:50:37;;;;;;;1.93;1.07;;;21.70;46.70;;;;;;5033087;28;20248;-63
2022/09/01 09:53:14;;;;;;;1.57;1.00;;;21.60;43.60;;;;;;5032714;28;20227;-61
2022/09/01 09:55:55;;;;;;;1.37;0.90;;;21.60;43.70;;;;;;5032947;28;20208;-62
2022/09/01 09:58:25;;;;;;;1.57;1.27;;;21.60;46.10;;;;;;5032456;28;20236;-63
2022/09/01 10:01:00;;;;;;;1.43;1.10;;;21.80;52.60;;;;;;5033137;28;20245;-64
2022/09/01 10:03:36;;;;;;;4.93;1.10;;;21.90;48.40;;;;;;5032238;28;20325;-63
2022/09/01 10:06:03;;;;;;;1.90;1.13;;;22.10;51.00;;;;;;5032335;28;20217;-63
2022/09/01 10:08:44;;;;;;;2.90;1.20;;;22.20;54.40;;;;;;5032219;28;20707;-62
2022/09/01 10:11:26;;;;;;;3.70;1.10;;;22.10;49.20;;;;;;5032733;28;20237;-63
2022/09/01 10:14:00;;;;;;;1.80;1.00;;;22.00;47.70;;;;;;5033361;28;20222;-62
2022/09/01 10:16:31;;;;;;;1.60;1.10;;;22.00;47.90;;;;;;5031859;28;20213;-62
2022/09/01 10:19:00;;;;;;;2.00;1.00;;;22.00;46.60;;;;;;5033254;28;20214;-65
2022/09/01 10:21:37;;;;;;;1.63;1.07;;;22.10;48.50;;;;;;5033946;28;20631;-62
2022/09/01 10:24:12;;;;;;;4.87;1.27;;;22.10;46.10;;;;;;5034018;28;20226;-65
2022/09/01 10:26:43;;;;;;;6.43;1.40;;;22.00;45.30;;;;;;5033075;28;20202;-62
2022/09/01 10:29:14;;;;;;;5.13;1.40;;;22.00;49.80;;;;;;5033366;28;20248;-62
2022/09/01 10:31:42;;;;;;;4.40;1.00;;;22.30;58.60;;;;;;5033544;28;20268;-63
2022/09/01 10:34:16;;;;;;;2.67;1.30;;;22.60;56.40;;;;;;5033588;28;20793;-64
2022/09/01 10:36:45;;;;;;;1.70;1.10;;;22.70;57.70;;;;;;5031266;28;20207;-61
2022/09/01 10:39:14;;;;;;;2.13;1.10;;;22.80;53.10;;;;;;5030648;28;20267;-64
2022/09/01 10:41:52;;;;;;;1.60;1.37;;;22.80;58.90;;;;;;5031998;28;20206;-64
2022/09/01 10:44:21;;;;;;;2.70;1.23;;;22.70;53.80;;;;;;5030215;28;20277;-65
2022/09/01 10:46:49;;;;;;;1.57;1.07;;;22.70;57.20;;;;;;5031418;28;20245;-65
2022/09/01 10:49:36;;;;;;;4.80;1.20;;;22.80;52.70;;;;;;5031545;28;20669;-64
2022/09/01 10:52:02;;;;;;;2.30;1.20;;;22.80;52.30;;;;;;5014699;28;20226;-64
2022/09/01 10:54:53;;;;;;;2.10;1.10;;;22.90;56.10;;;;;;5031604;28;20276;-64
2022/09/01 10:57:40;;;;;;;2.37;1.30;;;22.80;53.60;;;;;;5031226;28;20213;-65
2022/09/01 11:01:01;;;;;;;1.80;1.20;;;22.90;57.00;;;;;;5031459;28;20207;-65
2022/09/01 11:03:52;;;;;;;1.53;1.00;;;23.00;52.70;;;;;;5027792;28;20230;-63
2022/09/01 11:06:45;;;;;;;2.20;1.40;;;22.90;50.10;;;;;;5031150;28;20211;-64
2022/09/01 11:09:22;;;;;;;3.07;1.33;;;22.70;49.50;;;;;;5031529;28;20260;-64
2022/09/01 11:12:00;;;;;;;1.73;1.20;;;22.90;52.60;;;;;;5031485;28;20226;-63
2022/09/01 11:14:34;;;;;;;1.97;1.40;;;23.10;52.50;;;;;;5032299;28;20728;-63
2022/09/01 11:17:12;;;;;;;3.33;1.30;;;23.10;53.50;;;;;;5032384;28;20214;-63
2022/09/01 11:19:42;;;;;;;3.00;1.37;;;23.40;59.60;;;;;;5033084;28;20213;-64
2022/09/01 11:22:31;;;;;;;4.80;1.87;;;23.60;54.90;;;;;;5032457;28;20707;-64
2022/09/01 11:25:27;;;;;;;3.57;1.33;;;23.60;55.70;;;;;;5032648;28;20309;-64
2022/09/01 11:28:01;;;;;;;4.00;1.17;;;23.40;53.60;;;;;;5032100;28;20210;-64
2022/09/01 11:30:49;;;;;;;3.37;1.40;;;23.30;51.60;;;;;;5032724;28;20255;-64
2022/09/01 11:33:47;;;;;;;3.63;1.27;;;23.30;50.80;;;;;;5030899;28;20222;-64
2022/09/01 11:36:20;;;;;;;4.70;1.30;;;23.40;52.40;;;;;;4983599;28;20237;-64
2022/09/01 11:38:50;;;;;;;4.50;1.37;;;23.60;53.30;;;;;;5030741;28;20206;-65
2022/09/01 11:44:22;;;;;;;2.73;1.27;;;23.30;48.90;;;;;;5023516;28;20234;-65
2022/09/01 11:46:52;;;;;;;1.43;1.27;;;23.30;54.60;;;;;;5030629;28;20202;-65
2022/09/01 11:49:28;;;;;;;3.70;1.10;;;23.40;49.40;;;;;;5029791;28;20210;-65
2022/09/01 11:51:56;;;;;;;2.90;1.30;;;23.50;50.10;;;;;;5019164;28;20676;-64
2022/09/01 11:54:23;;;;;;;1.90;1.23;;;23.60;53.80;;;;;;5027612;28;20234;-64
2022/09/01 11:56:49;;;;;;;2.27;1.27;;;23.60;51.20;;;;;;5030144;28;20669;-66
2022/09/01 11:59:30;;;;;;;3.03;1.40;;;23.60;52.80;;;;;;5030494;28;20332;-66
2022/09/01 12:01:58;;;;;;;4.37;1.40;;;23.80;52.50;;;;;;5030780;28;20791;-66
2022/09/01 12:04:30;;;;;;;5.20;1.20;;;23.90;50.90;;;;;;5030522;28;20807;-67
2022/09/01 12:07:01;;;;;;;3.67;1.20;;;23.80;50.00;;;;;;5029796;28;20807;-66
2022/09/01 12:09:39;;;;;;;3.07;1.30;;;23.80;49.10;;;;;;5030655;28;20224;-66
2022/09/01 12:12:09;;;;;;;3.63;1.13;;;23.90;51.10;;;;;;5031110;28;20766;-66
2022/09/01 12:14:36;;;;;;;2.03;1.27;;;24.00;54.70;;;;;;5031627;28;20230;-66
2022/09/01 12:17:05;;;;;;;5.20;1.23;;;24.00;49.60;;;;;;5030597;28;20206;-65
2022/09/01 12:19:37;;;;;;;1.57;1.10;;;23.80;46.90;;;;;;5030556;28;20210;-66
2022/09/01 12:22:12;;;;;;;4.53;1.30;;;23.80;46.00;;;;;;5030512;28;20237;-66
2022/09/01 12:24:43;;;;;;;1.43;1.10;;;23.90;45.70;;;;;;5031484;28;20230;-66
2022/09/01 12:27:10;;;;;;;2.60;1.50;;;24.00;48.90;;;;;;5030984;28;20333;-66
2022/09/01 12:29:38;;;;;;;1.20;1.10;;;24.10;50.40;;;;;;5030984;28;20206;-66
2022/09/01 12:32:06;;;;;;;3.33;1.10;;;24.20;50.50;;;;;;5030025;28;20226;-64
2022/09/01 12:34:39;;;;;;;4.07;1.30;;;24.20;48.60;;;;;;5030229;28;20234;-64
2022/09/01 12:37:10;;;;;;;3.30;1.27;;;24.10;47.30;;;;;;5029813;28;20210;-63
2022/09/01 12:39:38;;;;;;;1.63;1.10;;;24.00;47.70;;;;;;5030010;28;20210;-63
2022/09/01 12:42:10;;;;;;;2.27;1.30;;;24.00;47.00;;;;;;5029775;28;20757;-64
2022/09/01 12:44:46;;;;;;;2.90;1.17;;;24.20;46.30;;;;;;5030143;28;20242;-62
2022/09/01 12:47:47;;;;;;;3.60;1.17;;;24.30;50.40;;;;;;5029875;28;20214;-64
2022/09/01 12:50:42;;;;;;;1.73;1.10;;;24.30;50.00;;;;;;5029906;28;20569;-66
2022/09/01 12:53:17;;;;;;;1.63;0.90;;;23.80;41.90;;;;;;5030001;28;20217;-64
2022/09/01 12:56:02;;;;;;;1.90;1.20;;;23.80;41.50;;;;;;5029803;28;20201;-62
2022/09/01 12:58:30;;;;;;;1.53;1.03;;;23.80;40.20;;;;;;5029424;28;20202;-64
2022/09/01 13:01:00;;;;;;;4.00;1.20;;;24.00;44.70;;;;;;5028269;28;20214;-62
2022/09/01 13:03:29;;;;;;;2.63;1.30;;;24.40;47.60;;;;;;5029568;28;20223;-62
2022/09/01 13:05:57;;;;;;;1.60;0.97;;;24.60;49.60;;;;;;5029226;28;20224;-63
2022/09/01 13:08:27;;;;;;;2.23;1.10;;;24.50;44.20;;;;;;5029510;28;20210;-66
2022/09/01 13:10:55;;;;;;;1.97;1.23;;;24.40;46.60;;;;;;5031100;28;20210;-67
2022/09/01 13:13:25;;;;;;;1.30;1.20;;;24.60;45.40;;;;;;5030502;28;20272;-66